createdAt,value
2023-04-14T03:24:40.195Z,4.50
2023-04-14T03:27:18.643Z,6.75
2023-04-14T03:29:53.614Z,5.05
2023-04-14T03:32:28.075Z,7.63
2023-04-14T03:35:01.985Z,6.18
2023-04-14T03:37:37.689Z,7.30
2023-04-14T03:40:11.334Z,7.55
2023-04-14T03:42:44.902Z,7.05
2023-04-14T03:45:23.839Z,7.80
2023-04-14T03:48:02.011Z,8.13
2023-04-14T03:50:37.882Z,9.10
2023-04-14T03:53:09.658Z,7.03
2023-04-14T03:55:45.019Z,13.00
2023-04-14T03:58:17.235Z,11.82
2023-04-14T04:00:49.708Z,9.60
2023-04-14T04:03:21.141Z,11.18
2023-04-14T04:05:51.716Z,9.05
2023-04-14T04:08:23.856Z,9.90
2023-04-14T04:10:56.502Z,13.43
2023-04-14T04:13:28.234Z,12.65
2023-04-14T04:15:59.755Z,16.08
2023-04-14T04:18:32.145Z,11.52
2023-04-14T04:21:02.914Z,11.38
2023-04-14T04:23:36.047Z,12.25
2023-04-14T04:26:07.930Z,12.20
2023-04-14T04:28:41.550Z,14.25
2023-04-14T04:31:12.072Z,12.40
2023-04-14T04:33:42.243Z,13.93
2023-04-14T04:36:13.069Z,18.50
2023-04-14T04:38:45.251Z,14.85
2023-04-14T04:41:28.896Z,11.95
2023-04-14T04:44:01.580Z,12.82
2023-04-14T04:46:51.489Z,12.65
2023-04-14T04:49:21.489Z,13.43
2023-04-14T04:51:51.678Z,14.55
2023-04-14T04:54:22.152Z,13.43
2023-04-14T04:56:52.932Z,14.02
2023-04-14T04:59:22.376Z,12.57
2023-04-14T05:01:53.140Z,14.15
2023-04-14T05:04:22.884Z,12.57
2023-04-14T05:06:52.540Z,11.50
2023-04-14T05:09:22.187Z,13.00
2023-04-14T05:11:53.182Z,13.95
2023-04-14T05:14:22.805Z,14.55
2023-04-14T05:16:52.404Z,9.93
2023-04-14T05:19:21.909Z,11.65
2023-04-14T05:21:51.624Z,15.07
2023-04-14T05:24:21.308Z,14.05
2023-04-14T05:27:12.494Z,8.60
2023-04-14T05:29:41.800Z,11.30
2023-04-14T05:32:12.889Z,9.40
2023-04-14T05:34:42.906Z,11.05
2023-04-14T05:37:12.420Z,11.70
2023-04-14T05:39:42.371Z,13.27
2023-04-14T05:42:13.657Z,12.50
2023-04-14T05:44:43.207Z,8.93
2023-04-14T05:47:12.584Z,9.98
2023-04-14T05:49:42.008Z,11.32
2023-04-14T05:52:11.504Z,11.15
2023-04-14T05:54:43.013Z,9.85
2023-04-14T05:57:14.116Z,8.40
2023-04-14T05:59:43.615Z,8.65
2023-04-14T06:02:13.257Z,9.48
2023-04-14T06:04:42.916Z,8.68
2023-04-14T06:07:12.441Z,9.95
2023-04-14T06:09:42.642Z,9.40
2023-04-14T06:12:14.146Z,10.50
2023-04-14T06:14:43.913Z,9.98
2023-04-14T06:17:13.550Z,7.97
2023-04-14T06:19:42.992Z,14.38
2023-04-14T06:22:16.729Z,9.32
2023-04-14T06:24:46.229Z,9.05
2023-04-14T06:27:17.123Z,9.25
2023-04-14T06:29:46.524Z,8.90
2023-04-14T06:32:16.102Z,11.30
2023-04-14T06:34:45.853Z,7.88
2023-04-14T06:37:16.282Z,8.18
2023-04-14T06:39:45.926Z,13.05
2023-04-14T06:42:17.259Z,9.15
2023-04-14T06:44:46.662Z,5.95
2023-04-14T06:47:20.889Z,6.15
2023-04-14T06:49:51.295Z,8.02
2023-04-14T06:52:20.783Z,14.38
2023-04-14T06:54:50.614Z,8.65
2023-04-14T06:57:21.540Z,7.90
2023-04-14T06:59:51.234Z,12.25
2023-04-14T07:02:20.919Z,7.80
2023-04-14T07:04:50.533Z,6.93
2023-04-14T07:07:19.994Z,6.82
2023-04-14T07:09:49.530Z,6.07
2023-04-14T07:12:20.907Z,8.00
2023-04-14T07:14:52.422Z,8.20
2023-04-14T07:17:22.037Z,8.52
2023-04-14T07:19:51.537Z,7.95
2023-04-14T07:22:21.554Z,7.18
2023-04-14T07:24:51.556Z,9.73
2023-04-14T07:27:22.374Z,8.18
2023-04-14T07:29:53.206Z,11.25
2023-04-14T07:32:22.801Z,6.50
2023-04-14T07:34:52.378Z,7.85
2023-04-14T07:37:28.033Z,6.10
2023-04-14T07:39:58.846Z,10.95
2023-04-14T07:42:29.626Z,9.88
2023-04-14T07:44:59.043Z,8.48
2023-04-14T07:47:28.533Z,6.82
2023-04-14T07:49:58.396Z,9.82
2023-04-14T07:52:27.824Z,10.38
2023-04-14T07:54:57.303Z,7.57
2023-04-14T07:57:27.094Z,7.38
2023-04-14T07:59:57.954Z,16.67
2023-04-14T08:02:27.583Z,8.55
2023-04-14T08:04:57.135Z,8.65
2023-04-14T08:07:28.568Z,9.55
2023-04-14T08:09:58.135Z,12.13
2023-04-14T08:12:27.527Z,7.10
2023-04-14T08:14:58.318Z,7.15
2023-04-14T08:17:27.841Z,9.52
2023-04-14T08:19:57.291Z,7.43
2023-04-14T08:22:26.710Z,11.27
2023-04-14T08:24:58.528Z,9.35
2023-04-14T08:27:27.948Z,10.02
2023-04-14T08:29:58.793Z,5.80
2023-04-14T08:32:28.396Z,5.68
2023-04-14T08:35:41.015Z,6.25
2023-04-14T08:37:47.680Z,7.55
2023-04-14T08:40:19.153Z,7.22
2023-04-14T08:42:48.679Z,6.88
2023-04-14T08:45:20.195Z,8.70
2023-04-14T08:47:54.770Z,7.80
2023-04-14T08:50:29.015Z,7.30
2023-04-14T08:53:02.879Z,4.88
2023-04-14T08:55:35.154Z,5.75
2023-04-14T08:58:10.790Z,7.82
2023-04-14T09:00:42.531Z,5.93
2023-04-14T09:03:14.086Z,6.80
2023-04-14T09:05:45.314Z,7.85
2023-04-14T09:08:15.283Z,6.72
2023-04-14T09:10:45.143Z,10.60
2023-04-14T09:13:17.642Z,7.50
2023-04-14T09:15:48.561Z,9.82
2023-04-14T09:18:18.630Z,7.03
2023-04-14T09:21:29.565Z,10.25
2023-04-14T09:23:41.720Z,7.22
2023-04-14T09:26:11.642Z,7.93
2023-04-14T09:28:42.221Z,9.77
2023-04-14T09:31:13.101Z,11.57
2023-04-14T09:33:51.201Z,5.35
2023-04-14T09:36:22.898Z,5.75
2023-04-14T09:38:53.471Z,6.15
2023-04-14T09:41:25.967Z,8.10
2023-04-14T09:43:55.542Z,4.97
2023-04-14T09:46:26.374Z,5.60
2023-04-14T09:48:57.887Z,5.65
2023-04-14T09:51:30.213Z,8.02
2023-04-14T09:54:05.253Z,6.40
2023-04-14T09:56:35.165Z,7.38
2023-04-14T09:59:04.847Z,9.52
2023-04-14T10:01:36.741Z,5.10
2023-04-14T10:04:06.433Z,6.10
2023-04-14T10:06:35.941Z,6.65
2023-04-14T10:09:05.848Z,6.63
2023-04-14T10:11:36.435Z,7.03
2023-04-14T10:14:07.986Z,9.10
2023-04-14T10:16:38.926Z,8.02
2023-04-14T10:19:08.447Z,6.90
2023-04-14T10:21:38.118Z,6.75
2023-04-14T10:24:07.872Z,5.13
2023-04-14T10:26:37.448Z,4.50
2023-04-14T10:29:07.148Z,8.68
2023-04-14T10:31:44.748Z,9.30
2023-04-14T10:34:16.710Z,5.20
2023-04-14T10:36:46.377Z,6.43
2023-04-14T10:39:24.689Z,6.38
2023-04-14T10:41:56.987Z,7.10
2023-04-14T10:44:29.376Z,6.32
2023-04-14T10:47:02.879Z,6.00
2023-04-14T10:49:35.452Z,6.05
2023-04-14T10:52:08.112Z,6.70
2023-04-14T10:54:52.243Z,7.18
2023-04-14T10:57:24.497Z,4.68
2023-04-14T10:59:59.156Z,6.07
2023-04-14T11:02:33.311Z,6.97
2023-04-14T11:05:08.801Z,6.22
2023-04-14T11:07:45.669Z,4.10
2023-04-14T11:10:36.561Z,3.65
2023-04-14T11:13:09.112Z,5.05
2023-04-14T11:15:53.092Z,7.60
2023-04-14T11:18:37.118Z,5.97
2023-04-14T11:21:08.927Z,4.43
2023-04-14T11:23:39.375Z,3.10
2023-04-14T11:26:12.172Z,3.75
2023-04-14T11:28:44.457Z,3.53
2023-04-14T11:31:19.316Z,4.73
2023-04-14T11:33:51.216Z,3.05
2023-04-14T11:36:20.657Z,3.67
2023-04-14T11:38:50.845Z,4.00
2023-04-14T11:41:21.518Z,2.00
2023-04-14T11:43:51.742Z,2.90
2023-04-14T11:46:22.081Z,4.82
2023-04-14T11:48:57.806Z,3.28
2023-04-14T11:51:32.248Z,5.10
2023-04-14T11:54:37.145Z,4.50
2023-04-14T11:57:11.907Z,6.65
2023-04-14T11:59:44.501Z,6.03
2023-04-14T12:02:19.421Z,5.32
2023-04-14T12:04:52.519Z,4.78
2023-04-14T12:07:23.582Z,3.47
2023-04-14T12:09:53.073Z,5.97
2023-04-14T12:12:22.528Z,8.18
2023-04-14T12:14:52.226Z,8.23
2023-04-14T12:17:22.004Z,10.52
2023-04-14T12:19:52.903Z,8.50
2023-04-14T12:22:27.328Z,8.00
2023-04-14T12:24:58.391Z,6.75
2023-04-14T12:27:28.513Z,6.60
2023-04-14T12:29:58.500Z,7.13
2023-04-14T12:32:30.642Z,5.90
2023-04-14T12:35:02.260Z,7.60
2023-04-14T12:37:31.689Z,11.35
2023-04-14T12:40:06.851Z,5.07
2023-04-14T12:42:48.549Z,10.10
2023-04-14T12:45:18.750Z,5.50
2023-04-14T12:49:52.463Z,5.20
2023-04-14T12:52:38.189Z,6.82
2023-04-14T13:00:19.354Z,4.15
2023-04-14T13:02:49.514Z,3.17
2023-04-14T13:05:19.799Z,5.95
2023-04-14T13:07:50.819Z,2.67
2023-04-14T13:10:20.635Z,3.85
2023-04-14T13:12:50.521Z,3.05
2023-04-14T13:15:57.458Z,3.08
2023-04-14T13:18:09.690Z,3.50
2023-04-14T13:20:39.133Z,3.83
2023-04-14T13:23:09.908Z,3.72
2023-04-14T13:25:39.472Z,8.75
2023-04-14T13:28:09.534Z,4.97
2023-04-14T13:30:41.267Z,7.60
2023-04-14T13:33:12.042Z,3.33
2023-04-14T13:35:41.686Z,5.32
2023-04-14T13:38:12.663Z,4.85
2023-04-14T13:40:42.172Z,6.63
2023-04-14T13:43:17.228Z,4.32
2023-04-14T13:45:47.403Z,5.38
2023-04-14T13:48:16.983Z,4.70
2023-04-14T13:50:46.393Z,4.35
2023-04-14T13:53:17.772Z,6.72
2023-04-14T13:55:47.465Z,5.72
2023-04-14T13:58:16.946Z,5.47
2023-04-14T14:00:46.395Z,6.43
2023-04-14T14:03:16.089Z,6.85
2023-04-14T14:05:45.794Z,5.20
2023-04-14T14:08:17.084Z,6.75
2023-04-14T14:10:46.671Z,4.55
2023-04-14T14:13:17.378Z,7.63
2023-04-14T14:15:48.715Z,5.93
2023-04-14T14:18:18.194Z,7.82
2023-04-14T14:20:48.076Z,6.53
2023-04-14T14:23:18.880Z,4.80
2023-04-14T14:25:48.508Z,4.35
2023-04-14T14:28:18.289Z,4.10
2023-04-14T14:30:47.776Z,3.40
2023-04-14T14:33:17.228Z,5.63
2023-04-14T14:35:46.761Z,5.47
2023-04-14T14:38:17.688Z,6.10
2023-04-14T14:40:47.179Z,2.83
2023-04-14T14:43:16.619Z,3.28
2023-04-14T14:45:46.598Z,2.53
2023-04-14T14:48:16.565Z,3.33
2023-04-14T14:50:46.006Z,2.60
2023-04-14T14:53:15.414Z,3.60
2023-04-14T14:55:46.279Z,0.70
2023-04-14T14:58:16.022Z,1.77
2023-04-14T15:00:46.782Z,1.75
2023-04-14T15:03:16.935Z,1.30
2023-04-14T15:05:46.509Z,2.17
2023-04-14T15:08:16.147Z,2.03
2023-04-14T15:10:47.380Z,0.90
2023-04-14T15:13:17.133Z,1.35
2023-04-14T15:15:47.271Z,1.40
2023-04-14T15:18:16.983Z,3.17
2023-04-14T15:20:47.851Z,2.85
2023-04-14T15:23:17.420Z,3.05
2023-04-14T15:25:48.838Z,3.05
2023-04-14T15:28:18.491Z,3.00
2023-04-14T15:30:48.060Z,2.63
2023-04-14T15:33:17.746Z,2.00
2023-04-14T15:35:47.414Z,2.10
2023-04-14T15:38:17.355Z,1.50
2023-04-14T15:40:48.343Z,3.67
2023-04-14T15:43:18.100Z,4.22
2023-04-14T15:45:47.926Z,2.80
2023-04-14T15:48:17.531Z,3.00
2023-04-14T15:50:47.038Z,2.20
2023-04-14T15:53:16.778Z,3.75
2023-04-14T15:55:50.389Z,2.65
2023-04-14T15:58:20.743Z,5.22
2023-04-14T16:00:50.850Z,3.28
2023-04-14T16:03:20.702Z,4.82
2023-04-14T16:05:50.519Z,4.28
2023-04-14T16:08:20.319Z,4.70
2023-04-14T16:10:51.307Z,5.60
2023-04-14T16:13:20.867Z,4.63
2023-04-14T16:15:50.471Z,2.80
2023-04-14T16:18:20.106Z,6.68
2023-04-14T16:20:50.296Z,4.32
2023-04-14T16:23:19.900Z,3.10
2023-04-14T16:25:51.571Z,3.08
2023-04-14T16:28:22.159Z,5.65
2023-04-14T16:30:51.922Z,4.60
2023-04-14T16:33:21.560Z,5.30
2023-04-14T16:35:51.734Z,6.25
2023-04-14T16:38:21.324Z,3.10
2023-04-14T16:40:57.631Z,6.22
2023-04-14T16:43:28.498Z,3.65
2023-04-14T16:46:03.376Z,4.20
2023-04-14T16:48:33.440Z,3.05
2023-04-14T16:51:05.770Z,3.97
2023-04-14T16:53:36.466Z,5.47
2023-04-14T16:56:08.785Z,2.85
2023-04-14T16:58:39.920Z,4.37
2023-04-14T17:01:09.553Z,4.95
2023-04-14T17:03:39.406Z,3.63
2023-04-14T17:06:09.083Z,3.08
2023-04-14T17:08:39.617Z,4.35
2023-04-14T17:11:10.671Z,6.32
2023-04-14T17:13:40.229Z,3.20
2023-04-14T17:16:11.191Z,6.25
2023-04-14T17:18:41.318Z,6.25
2023-04-14T17:21:10.917Z,6.60
2023-04-14T17:23:40.794Z,5.63
2023-04-14T17:26:12.186Z,3.42
2023-04-14T17:28:41.711Z,5.22
2023-04-14T17:31:14.531Z,7.00
2023-04-14T17:33:46.047Z,5.25
2023-04-14T17:36:17.417Z,4.50
2023-04-14T17:38:46.980Z,8.02
2023-04-14T17:41:18.769Z,5.82
2023-04-14T17:43:48.343Z,7.03
2023-04-14T17:46:22.378Z,5.38
2023-04-14T17:48:52.261Z,5.20
2023-04-14T17:51:21.870Z,5.97
2023-04-14T17:53:51.496Z,4.43
2023-04-14T17:56:22.663Z,3.65
2023-04-14T17:58:53.065Z,5.70
2023-04-14T18:01:24.057Z,4.82
2023-04-14T18:03:53.771Z,5.22
2023-04-14T18:06:23.413Z,6.60
2023-04-14T18:08:52.941Z,3.28
2023-04-14T18:11:24.448Z,4.53
2023-04-14T18:13:54.782Z,6.03
2023-04-14T18:16:24.351Z,7.97
2023-04-14T18:18:54.743Z,6.72
2023-04-14T18:21:24.199Z,5.20
2023-04-14T18:26:27.593Z,3.83
2023-04-14T18:28:57.933Z,6.13
2023-04-14T18:31:27.704Z,4.53
2023-04-14T18:34:02.949Z,4.35
2023-04-14T18:36:33.420Z,5.10
2023-04-14T18:39:03.302Z,5.63
2023-04-14T18:41:34.418Z,4.90
2023-04-14T18:44:04.392Z,2.80
2023-04-14T18:46:34.296Z,4.15
2023-04-14T18:59:12.925Z,4.97
2023-04-14T19:01:42.674Z,3.75
2023-04-14T19:04:12.397Z,4.50
2023-04-14T19:06:42.136Z,6.80
2023-04-14T19:09:11.702Z,6.05
2023-04-14T19:11:41.423Z,8.02
2023-04-14T19:14:12.574Z,4.80
2023-04-14T19:16:42.118Z,5.30
2023-04-14T19:19:11.754Z,4.50
2023-04-14T19:21:41.282Z,6.18
2023-04-14T19:24:10.840Z,7.18
2023-04-14T19:26:40.882Z,5.45
2023-04-14T19:29:12.342Z,3.20
2023-04-14T19:31:42.055Z,3.55
2023-04-14T19:34:11.833Z,4.10
2023-04-14T19:36:41.427Z,5.45
2023-04-14T19:39:11.293Z,4.50
2023-04-14T19:41:41.071Z,2.97
2023-04-14T19:44:14.449Z,5.13
2023-04-14T19:49:14.313Z,4.40
2023-04-14T19:51:44.716Z,6.18
2023-04-14T19:54:14.394Z,5.10
2023-04-14T19:56:45.097Z,4.65
2023-04-14T19:59:16.391Z,4.90
2023-04-14T20:01:47.441Z,4.53
2023-04-14T20:04:17.410Z,4.53
2023-04-14T20:06:47.021Z,6.18
2023-04-14T20:09:16.881Z,4.72
2023-04-14T20:11:46.986Z,4.55
2023-04-14T20:14:17.949Z,4.40
2023-04-14T20:16:47.524Z,5.75
2023-04-14T20:19:17.405Z,5.97
2023-04-14T20:21:46.964Z,4.70
2023-04-14T20:24:16.478Z,4.35
2023-04-14T20:26:46.598Z,4.03
2023-04-14T20:29:17.595Z,4.68
2023-04-14T20:31:47.253Z,4.20
2023-04-14T20:34:16.978Z,5.22
2023-04-14T20:36:46.596Z,6.45
2023-04-14T20:39:16.227Z,5.55
2023-04-14T20:41:46.405Z,5.05
2023-04-14T20:44:17.383Z,6.18
2023-04-14T20:46:47.399Z,4.72
2023-04-14T20:49:16.983Z,6.38
2023-04-14T20:51:48.846Z,5.53
2023-04-14T20:54:18.426Z,5.18
2023-04-14T20:56:48.106Z,4.10
2023-04-14T20:59:19.072Z,5.18
2023-04-14T21:01:49.076Z,7.15
2023-04-14T21:04:19.009Z,4.82
2023-04-14T21:06:49.239Z,6.07
2023-04-14T21:09:18.976Z,5.15
2023-04-14T21:11:48.649Z,6.20
2023-04-14T21:15:30.207Z,5.68
2023-04-14T21:17:29.400Z,6.63
2023-04-14T21:19:59.121Z,8.38
2023-04-14T21:22:28.784Z,8.13
2023-04-14T21:24:58.521Z,9.88
2023-04-14T21:27:29.408Z,7.38
2023-04-14T21:30:00.808Z,7.78
2023-04-14T21:32:30.483Z,3.85
2023-04-14T21:35:00.128Z,4.47
2023-04-14T21:37:30.588Z,5.22
2023-04-14T21:40:01.399Z,5.38
2023-04-14T21:42:31.481Z,5.57
2023-04-14T21:45:07.791Z,6.40
2023-04-14T21:47:37.390Z,8.50
2023-04-14T21:50:09.657Z,8.48
2023-04-14T21:52:39.291Z,5.18
2023-04-14T21:55:10.469Z,4.65
2023-04-14T21:57:45.836Z,5.82
2023-04-14T22:00:20.562Z,7.47
2023-04-14T22:02:50.416Z,4.85
2023-04-14T22:05:20.234Z,4.82
2023-04-14T22:07:49.801Z,5.55
2023-04-14T22:10:20.679Z,7.22
2023-04-14T22:12:50.632Z,7.47
2023-04-14T22:15:22.285Z,4.55
2023-04-14T22:17:51.953Z,6.00
2023-04-14T22:20:23.474Z,5.65
2023-04-14T22:22:53.097Z,8.50
2023-04-14T22:25:23.399Z,7.10
2023-04-14T22:27:53.507Z,6.03
2023-04-14T22:30:24.458Z,4.90
2023-04-14T22:32:54.022Z,5.63
2023-04-14T22:35:23.587Z,4.82
2023-04-14T22:37:53.448Z,5.53
2023-04-14T22:40:28.416Z,5.65
2023-04-14T22:42:57.984Z,5.28
2023-04-14T22:45:29.779Z,6.57
2023-04-14T22:47:59.527Z,7.95
2023-04-14T22:50:30.819Z,6.13
2023-04-14T22:53:00.869Z,6.85
2023-04-14T22:55:30.729Z,8.25
2023-04-14T22:58:00.509Z,3.92
2023-04-14T23:00:31.644Z,6.40
2023-04-14T23:03:01.541Z,6.13
2023-04-14T23:05:31.361Z,5.25
2023-04-14T23:08:01.084Z,8.88
2023-04-14T23:10:31.018Z,6.60
2023-04-14T23:13:00.701Z,7.28
2023-04-14T23:15:31.913Z,8.27
2023-04-14T23:18:01.642Z,4.55
2023-04-14T23:20:32.226Z,10.55
2023-04-14T23:23:02.698Z,9.20
2023-04-14T23:25:32.642Z,5.75
2023-04-14T23:28:02.236Z,5.85
2023-04-14T23:30:33.390Z,8.38
2023-04-14T23:33:03.067Z,4.88
2023-04-14T23:35:33.068Z,4.88
2023-04-14T23:38:04.118Z,5.63
2023-04-14T23:40:35.479Z,10.82
2023-04-14T23:43:05.117Z,7.60
2023-04-14T23:45:58.093Z,10.90
2023-04-14T23:48:27.917Z,7.00
2023-04-14T23:51:00.791Z,6.93
2023-04-14T23:53:44.920Z,4.93
2023-04-14T23:56:14.443Z,5.43
2023-04-14T23:58:44.117Z,8.77
